createdAt,value
2019-02-06T00:02:18.304Z,98908.00
2019-02-06T00:06:39.248Z,98894.00
2019-02-06T00:11:00.089Z,98903.00
2019-02-06T00:15:21.431Z,98904.00
2019-02-06T00:19:42.273Z,98915.00
2019-02-06T00:24:03.099Z,98909.00
2019-02-06T00:28:23.885Z,98896.00
2019-02-06T00:32:45.058Z,98905.00
2019-02-06T00:36:46.244Z,98910.00
2019-02-06T00:41:07.170Z,98900.00
2019-02-06T00:45:22.127Z,98900.00
2019-02-06T00:49:36.285Z,98897.00
2019-02-06T00:53:51.029Z,98905.00
2019-02-06T00:58:05.409Z,98910.00
2019-02-06T01:02:20.154Z,98913.00
2019-02-06T01:06:21.325Z,98909.00
2019-02-06T01:10:42.189Z,98909.00
2019-02-06T01:15:03.316Z,98912.00
2019-02-06T01:19:24.244Z,98925.00
2019-02-06T01:23:25.371Z,98917.00
2019-02-06T01:27:46.268Z,98918.00
2019-02-06T01:32:07.388Z,98909.00
2019-02-06T01:36:08.388Z,98920.00
2019-02-06T01:40:29.149Z,98917.00
2019-02-06T01:44:43.846Z,98899.00
2019-02-06T01:48:58.493Z,98897.00
2019-02-06T01:53:12.825Z,98897.00
2019-02-06T01:57:27.394Z,98895.00
2019-02-06T02:01:42.179Z,98883.00
2019-02-06T02:06:02.423Z,98883.00
2019-02-06T02:10:12.618Z,98881.00
2019-02-06T02:14:26.976Z,98888.00
2019-02-06T02:18:41.378Z,98873.00
2019-02-06T02:22:42.686Z,98870.00
2019-02-06T02:27:03.617Z,98870.00
2019-02-06T02:31:24.972Z,98862.00
2019-02-06T02:35:25.843Z,98857.00
2019-02-06T02:39:46.548Z,98857.00
2019-02-06T02:43:47.486Z,98850.00
2019-02-06T02:48:08.527Z,98847.00
2019-02-06T02:52:29.382Z,98843.00
2019-02-06T02:56:30.587Z,98841.00
2019-02-06T03:01:11.278Z,98833.00
2019-02-06T03:05:33.598Z,98820.00
2019-02-06T03:09:34.713Z,98830.00
2019-02-06T03:13:55.462Z,98829.00
2019-02-06T03:18:16.213Z,98829.00
2019-02-06T03:22:36.953Z,98819.00
2019-02-06T03:26:57.689Z,98802.00
2019-02-06T03:31:18.632Z,98814.00
2019-02-06T03:35:39.892Z,98804.00
2019-02-06T03:39:40.958Z,98812.00
2019-02-06T03:43:54.736Z,98804.00
2019-02-06T03:48:09.238Z,98807.00
2019-02-06T03:52:10.210Z,98813.00
2019-02-06T03:56:11.194Z,98814.00
2019-02-06T04:00:32.042Z,98819.00
2019-02-06T04:04:52.981Z,98817.00
2019-02-06T04:09:13.920Z,98802.00
2019-02-06T04:13:34.683Z,98807.00
2019-02-06T04:17:55.647Z,98804.00
2019-02-06T04:22:16.531Z,98796.00
2019-02-06T04:26:37.579Z,98794.00
2019-02-06T04:30:58.329Z,98782.00
2019-02-06T04:35:19.160Z,98791.00
2019-02-06T04:39:40.006Z,98788.00
2019-02-06T04:43:54.061Z,98791.00
2019-02-06T04:48:08.885Z,98781.00
2019-02-06T04:52:09.895Z,98780.00
2019-02-06T04:56:30.832Z,98782.00
2019-02-06T05:00:51.879Z,98774.00
2019-02-06T05:05:12.774Z,98772.00
2019-02-06T05:09:13.712Z,98774.00
2019-02-06T05:13:34.521Z,98779.00
2019-02-06T05:17:35.447Z,98776.00
2019-02-06T05:21:36.427Z,98778.00
2019-02-06T05:25:57.197Z,98775.00
2019-02-06T05:30:17.916Z,98765.00
2019-02-06T05:34:38.873Z,98755.00
2019-02-06T05:38:59.630Z,98772.00
2019-02-06T05:43:20.380Z,98764.00
2019-02-06T05:47:34.723Z,98756.00
2019-02-06T05:51:35.641Z,98760.00
2019-02-06T05:55:56.376Z,98774.00
2019-02-06T06:04:27.189Z,98765.00
2019-02-06T06:08:28.066Z,98752.00
2019-02-06T06:12:29.024Z,98755.00
2019-02-06T06:16:49.756Z,98759.00
2019-02-06T06:21:10.614Z,98760.00
2019-02-06T06:25:31.452Z,98766.00
2019-02-06T06:29:52.376Z,98762.00
2019-02-06T06:33:53.653Z,98763.00
2019-02-06T06:38:14.500Z,98763.00
2019-02-06T06:42:35.443Z,98743.00
2019-02-06T06:46:50.395Z,98756.00
2019-02-06T06:51:05.011Z,98753.00
2019-02-06T06:55:18.902Z,98753.00
2019-02-06T06:59:33.532Z,98755.00
2019-02-06T07:03:47.970Z,98761.00
2019-02-06T07:08:09.624Z,98752.00
2019-02-06T07:12:18.140Z,98757.00
2019-02-06T07:16:32.900Z,98748.00
2019-02-06T07:20:47.369Z,98750.00
2019-02-06T07:24:48.457Z,98746.00
2019-02-06T07:29:09.304Z,98752.00
2019-02-06T07:33:30.234Z,98759.00
2019-02-06T07:37:51.167Z,98746.00
2019-02-06T07:42:12.410Z,98743.00
2019-02-06T07:46:26.674Z,98758.00
2019-02-06T07:50:41.268Z,98748.00
2019-02-06T07:54:55.760Z,98766.00
2019-02-06T07:59:10.065Z,98760.00
2019-02-06T08:03:24.855Z,98767.00
2019-02-06T08:07:39.053Z,98765.00
2019-02-06T08:11:53.646Z,98770.00
2019-02-06T08:16:08.236Z,98759.00
2019-02-06T08:20:22.781Z,98770.00
2019-02-06T08:24:37.504Z,98780.00
2019-02-06T08:28:51.449Z,98778.00
2019-02-06T08:33:05.887Z,98773.00
2019-02-06T08:37:20.524Z,98783.00
2019-02-06T08:41:35.075Z,98777.00
2019-02-06T08:45:49.615Z,98780.00
2019-02-06T08:50:04.146Z,98776.00
2019-02-06T08:54:20.384Z,98775.00
2019-02-06T08:58:35.285Z,98780.00
2019-02-06T09:02:49.903Z,98774.00
2019-02-06T09:06:50.800Z,98777.00
2019-02-06T09:11:11.550Z,98785.00
2019-02-06T09:15:32.378Z,98777.00
2019-02-06T09:19:53.210Z,98776.00
2019-02-06T09:24:13.947Z,98777.00
2019-02-06T09:28:37.332Z,98770.00
2019-02-06T09:32:57.709Z,98772.00
2019-02-06T09:36:59.018Z,98774.00
2019-02-06T09:41:19.943Z,98768.00
2019-02-06T09:45:34.474Z,98770.00
2019-02-06T09:49:49.876Z,98773.00
2019-02-06T09:54:04.839Z,98764.00
2019-02-06T09:58:19.490Z,98761.00
2019-02-06T10:02:34.332Z,98768.00
2019-02-06T10:06:49.079Z,98771.00
2019-02-06T10:11:03.549Z,98770.00
2019-02-06T10:15:18.057Z,98769.00
2019-02-06T10:19:32.119Z,98758.00
2019-02-06T10:23:46.695Z,98755.00
2019-02-06T10:28:01.263Z,98750.00
2019-02-06T10:32:15.699Z,98742.00
2019-02-06T10:36:29.725Z,98747.00
2019-02-06T10:40:30.646Z,98751.00
2019-02-06T10:44:44.983Z,98745.00
2019-02-06T10:48:59.516Z,98739.00
2019-02-06T10:53:13.900Z,98732.00
2019-02-06T10:57:28.558Z,98732.00
2019-02-06T11:01:43.218Z,98719.00
2019-02-06T11:05:57.833Z,98704.00
2019-02-06T11:10:12.528Z,98698.00
2019-02-06T11:14:27.123Z,98694.00
2019-02-06T11:18:28.044Z,98697.00
2019-02-06T11:22:48.787Z,98688.00
2019-02-06T11:27:09.628Z,98686.00
2019-02-06T11:31:30.569Z,98678.00
2019-02-06T11:35:51.624Z,98675.00
2019-02-06T11:39:57.891Z,98664.00
2019-02-06T11:44:15.291Z,98666.00
2019-02-06T11:48:36.200Z,98657.00
2019-02-06T11:52:57.087Z,98654.00
2019-02-06T11:57:17.863Z,98665.00
2019-02-06T12:01:39.527Z,98656.00
2019-02-06T12:06:20.253Z,98663.00
2019-02-06T12:10:41.213Z,98654.00
2019-02-06T12:15:23.828Z,98651.00
2019-02-06T12:19:44.705Z,98641.00
2019-02-06T12:24:05.628Z,98629.00
2019-02-06T12:28:06.629Z,98628.00
2019-02-06T12:32:27.475Z,98617.00
2019-02-06T12:41:10.712Z,98609.00
2019-02-06T12:45:25.127Z,98601.00
2019-02-06T12:49:39.659Z,98604.00
2019-02-06T12:53:54.309Z,98596.00
2019-02-06T12:58:10.973Z,98598.00
2019-02-06T13:02:25.323Z,98586.00
2019-02-06T13:06:40.057Z,98583.00
2019-02-06T13:10:54.724Z,98575.00
2019-02-06T13:15:09.218Z,98578.00
2019-02-06T13:19:26.879Z,98573.00
2019-02-06T13:23:40.783Z,98565.00
2019-02-06T13:27:55.324Z,98560.00
2019-02-06T13:32:10.714Z,98556.00
2019-02-06T13:36:25.792Z,98540.00
2019-02-06T13:40:45.762Z,98553.00
2019-02-06T13:44:56.946Z,98547.00
2019-02-06T13:49:11.943Z,98549.00
2019-02-06T13:53:28.326Z,98536.00
2019-02-06T13:57:42.238Z,98537.00
2019-02-06T14:01:57.056Z,98526.00
2019-02-06T14:06:11.794Z,98526.00
2019-02-06T14:10:26.195Z,98514.00
2019-02-06T14:14:40.901Z,98516.00
2019-02-06T14:18:55.614Z,98508.00
2019-02-06T14:23:10.255Z,98514.00
2019-02-06T14:27:24.791Z,98505.00
2019-02-06T14:31:39.278Z,98493.00
2019-02-06T14:35:53.648Z,98504.00
2019-02-06T14:40:10.998Z,98508.00
2019-02-06T14:44:25.153Z,98505.00
2019-02-06T14:48:39.693Z,98495.00
2019-02-06T14:52:53.853Z,98496.00
2019-02-06T14:57:08.437Z,98494.00
2019-02-06T15:01:23.058Z,98493.00
2019-02-06T15:05:37.588Z,98488.00
2019-02-06T15:09:52.082Z,98486.00
2019-02-06T15:14:32.957Z,98493.00
2019-02-06T15:19:13.667Z,98486.00
2019-02-06T15:23:56.192Z,98476.00
2019-02-06T15:28:37.178Z,98466.00
2019-02-06T15:33:17.816Z,98457.00
2019-02-06T15:37:58.442Z,98451.00
2019-02-06T15:42:43.322Z,98448.00
2019-02-06T15:47:05.601Z,98446.00
2019-02-06T15:51:46.297Z,98455.00
2019-02-06T15:56:27.013Z,98451.00
2019-02-06T16:01:07.787Z,98450.00
2019-02-06T16:05:50.447Z,98453.00
2019-02-06T16:10:33.297Z,98446.00
2019-02-06T16:15:15.798Z,98439.00
2019-02-06T16:20:05.679Z,98438.00
2019-02-06T16:29:24.048Z,98415.00
2019-02-06T16:34:04.997Z,98422.00
2019-02-06T16:38:47.633Z,98425.00
2019-02-06T16:43:28.323Z,98434.00
2019-02-06T16:47:45.600Z,98433.00
2019-02-06T16:52:00.291Z,98427.00
2019-02-06T16:56:42.882Z,98440.00
2019-02-06T17:01:25.363Z,98430.00
2019-02-06T17:05:48.382Z,98434.00
2019-02-06T17:10:30.980Z,98439.00
2019-02-06T17:15:15.496Z,98431.00
2019-02-06T17:19:58.169Z,98417.00
2019-02-06T17:24:38.870Z,98423.00
2019-02-06T17:29:19.499Z,98419.00
2019-02-06T17:34:00.085Z,98419.00
2019-02-06T17:38:40.686Z,98413.00
2019-02-06T17:43:23.422Z,98402.00
2019-02-06T17:47:46.137Z,98387.00
2019-02-06T17:52:28.615Z,98394.00
2019-02-06T17:56:49.489Z,98383.00
2019-02-06T18:01:30.297Z,98385.00
2019-02-06T18:05:51.126Z,98381.00
2019-02-06T18:10:33.669Z,98384.00
2019-02-06T18:14:54.521Z,98384.00
2019-02-06T18:19:15.265Z,98393.00
2019-02-06T18:23:38.880Z,98398.00
2019-02-06T18:27:59.891Z,98382.00
2019-02-06T18:32:20.850Z,98369.00
2019-02-06T18:36:41.891Z,98364.00
2019-02-06T18:41:02.939Z,98355.00
2019-02-06T18:45:24.134Z,98355.00
2019-02-06T18:49:45.151Z,98365.00
2019-02-06T18:54:06.105Z,98371.00
2019-02-06T18:58:27.612Z,98356.00
2019-02-06T19:02:48.522Z,98351.00
2019-02-06T19:07:09.510Z,98340.00
2019-02-06T19:11:30.679Z,98294.00
2019-02-06T19:15:56.454Z,98306.00
2019-02-06T19:20:15.357Z,98307.00
2019-02-06T19:24:36.313Z,98316.00
2019-02-06T19:28:57.552Z,98317.00
2019-02-06T19:32:58.656Z,98297.00
2019-02-06T19:37:19.544Z,98306.00
2019-02-06T19:41:40.737Z,98298.00
2019-02-06T19:45:55.035Z,98306.00
2019-02-06T19:50:09.219Z,98306.00
2019-02-06T19:54:23.925Z,98300.00
2019-02-06T19:58:41.093Z,98293.00
2019-02-06T20:02:54.270Z,98285.00
2019-02-06T20:07:08.934Z,98278.00
2019-02-06T20:11:23.119Z,98261.00
2019-02-06T20:15:37.731Z,98244.00
2019-02-06T20:19:38.788Z,98241.00
2019-02-06T20:23:59.747Z,98236.00
2019-02-06T20:28:22.570Z,98241.00
2019-02-06T20:32:43.518Z,98241.00
2019-02-06T20:37:04.500Z,98248.00
2019-02-06T20:41:25.459Z,98240.00
2019-02-06T20:45:26.713Z,98234.00
2019-02-06T20:49:47.613Z,98232.00
2019-02-06T20:58:18.724Z,98231.00
2019-02-06T21:02:39.503Z,98226.00
2019-02-06T21:07:00.334Z,98221.00
2019-02-06T21:11:21.128Z,98210.00
2019-02-06T21:15:42.265Z,98207.00
2019-02-06T21:20:24.877Z,98203.00
2019-02-06T21:24:45.815Z,98201.00
2019-02-06T21:29:06.769Z,98194.00
2019-02-06T21:33:27.649Z,98186.00
2019-02-06T21:38:01.249Z,98179.00
2019-02-06T21:42:11.305Z,98178.00
2019-02-06T21:46:26.192Z,98159.00
2019-02-06T21:50:40.308Z,98164.00
2019-02-06T21:54:54.759Z,98153.00
2019-02-06T21:59:11.677Z,98144.00
2019-02-06T22:03:25.825Z,98139.00
2019-02-06T22:07:40.599Z,98141.00
2019-02-06T22:11:57.892Z,98133.00
2019-02-06T22:16:11.813Z,98136.00
2019-02-06T22:25:01.795Z,98139.00
2019-02-06T22:29:22.989Z,98132.00
2019-02-06T22:33:44.006Z,98122.00
2019-02-06T22:38:05.031Z,98127.00
2019-02-06T22:42:26.043Z,98122.00
2019-02-06T22:46:40.134Z,98126.00
2019-02-06T22:50:55.454Z,98113.00
2019-02-06T22:55:12.034Z,98120.00
2019-02-06T22:59:26.089Z,98117.00
2019-02-06T23:04:08.764Z,98109.00
2019-02-06T23:08:29.732Z,98112.00
2019-02-06T23:17:13.467Z,98089.00
2019-02-06T23:21:14.588Z,98080.00
2019-02-06T23:25:35.419Z,98081.00
2019-02-06T23:29:56.267Z,98067.00
2019-02-06T23:34:18.069Z,98060.00
2019-02-06T23:38:39.062Z,98057.00
2019-02-06T23:43:00.015Z,98047.00
2019-02-06T23:47:01.022Z,98041.00
2019-02-06T23:51:21.878Z,98041.00
2019-02-06T23:55:42.856Z,98038.00
